createdAt,value
2019-03-06T00:01:37.901Z,8.85
2019-03-06T00:04:04.631Z,8.85
2019-03-06T00:06:31.389Z,8.84
2019-03-06T00:08:58.535Z,8.88
2019-03-06T00:11:27.736Z,8.84
2019-03-06T00:13:54.465Z,8.82
2019-03-06T00:16:21.188Z,8.74
2019-03-06T00:18:47.919Z,8.68
2019-03-06T00:21:18.273Z,8.72
2019-03-06T00:23:45.015Z,8.62
2019-03-06T00:26:11.761Z,8.64
2019-03-06T00:28:38.496Z,8.58
2019-03-06T00:31:05.209Z,8.58
2019-03-06T00:33:31.973Z,8.66
2019-03-06T00:35:59.581Z,8.58
2019-03-06T00:38:26.329Z,8.59
2019-03-06T00:40:59.695Z,8.70
2019-03-06T00:43:26.421Z,8.55
2019-03-06T00:45:56.159Z,8.58
2019-03-06T00:48:22.915Z,8.61
2019-03-06T00:50:49.699Z,8.66
2019-03-06T00:53:17.353Z,8.62
2019-03-06T00:55:44.402Z,8.61
2019-03-06T00:58:11.174Z,8.64
2019-03-06T01:00:37.935Z,8.54
2019-03-06T01:03:04.831Z,8.47
2019-03-06T01:05:31.587Z,8.49
2019-03-06T01:07:58.340Z,8.50
2019-03-06T01:10:25.094Z,8.43
2019-03-06T01:12:54.787Z,8.31
2019-03-06T01:15:21.535Z,8.39
2019-03-06T01:17:48.681Z,8.27
2019-03-06T01:20:15.558Z,8.34
2019-03-06T01:22:42.317Z,8.39
2019-03-06T01:25:09.195Z,8.37
2019-03-06T01:27:36.021Z,8.33
2019-03-06T01:30:03.438Z,8.30
2019-03-06T01:32:32.488Z,8.25
2019-03-06T01:35:19.093Z,8.26
2019-03-06T01:38:04.617Z,8.28
2019-03-06T01:40:49.525Z,8.21
2019-03-06T01:43:20.859Z,8.18
2019-03-06T01:45:47.599Z,8.18
2019-03-06T01:48:14.542Z,8.02
2019-03-06T01:50:41.263Z,7.98
2019-03-06T01:53:08.056Z,7.88
2019-03-06T01:55:34.884Z,7.78
2019-03-06T01:58:01.622Z,7.84
2019-03-06T02:00:28.472Z,7.86
2019-03-06T02:05:35.727Z,7.73
2019-03-06T02:08:02.460Z,7.66
2019-03-06T02:10:29.401Z,7.69
2019-03-06T02:12:56.153Z,7.76
2019-03-06T02:15:22.887Z,7.64
2019-03-06T02:17:49.624Z,7.50
2019-03-06T02:20:16.552Z,7.45
2019-03-06T02:22:43.310Z,7.41
2019-03-06T02:25:10.051Z,7.41
2019-03-06T02:27:36.991Z,7.47
2019-03-06T02:30:06.812Z,7.51
2019-03-06T02:32:33.634Z,7.48
2019-03-06T02:35:00.527Z,7.51
2019-03-06T02:37:27.317Z,7.58
2019-03-06T02:39:54.246Z,7.57
2019-03-06T02:42:20.990Z,7.47
2019-03-06T02:44:47.738Z,7.38
2019-03-06T02:47:14.458Z,7.19
2019-03-06T02:49:42.294Z,7.16
2019-03-06T02:52:09.780Z,7.17
2019-03-06T02:54:36.561Z,7.15
2019-03-06T02:57:04.485Z,7.05
2019-03-06T02:59:53.794Z,6.91
2019-03-06T03:02:43.134Z,6.87
2019-03-06T03:05:29.023Z,7.00
2019-03-06T03:07:56.001Z,7.05
2019-03-06T03:10:23.225Z,7.06
2019-03-06T03:12:49.950Z,7.09
2019-03-06T03:15:19.306Z,7.17
2019-03-06T03:17:46.025Z,7.09
2019-03-06T03:20:12.740Z,7.09
2019-03-06T03:22:39.496Z,7.05
2019-03-06T03:25:06.577Z,7.05
2019-03-06T03:27:33.345Z,7.10
2019-03-06T03:30:00.653Z,7.07
2019-03-06T03:32:27.648Z,7.06
2019-03-06T03:34:54.412Z,7.09
2019-03-06T03:37:21.170Z,7.02
2019-03-06T03:39:48.141Z,6.99
2019-03-06T03:42:14.918Z,6.91
2019-03-06T03:44:42.035Z,6.87
2019-03-06T03:47:08.912Z,6.82
2019-03-06T03:49:35.705Z,6.88
2019-03-06T03:52:02.569Z,6.86
2019-03-06T03:54:29.606Z,6.83
2019-03-06T03:56:56.429Z,6.87
2019-03-06T03:59:25.899Z,6.86
2019-03-06T04:01:52.674Z,6.79
2019-03-06T04:04:21.756Z,6.68
2019-03-06T04:06:48.509Z,6.57
2019-03-06T04:09:15.254Z,6.57
2019-03-06T04:11:41.986Z,6.62
2019-03-06T04:14:08.716Z,6.46
2019-03-06T04:16:35.610Z,6.46
2019-03-06T04:19:02.442Z,6.49
2019-03-06T04:21:29.179Z,6.41
2019-03-06T04:23:56.031Z,6.47
2019-03-06T04:26:24.156Z,6.52
2019-03-06T04:28:51.277Z,6.52
2019-03-06T04:31:19.668Z,6.47
2019-03-06T04:33:46.431Z,6.43
2019-03-06T04:36:13.901Z,6.43
2019-03-06T04:38:40.635Z,6.36
2019-03-06T04:41:07.355Z,6.25
2019-03-06T04:43:34.202Z,6.25
2019-03-06T04:46:01.367Z,6.17
2019-03-06T04:48:28.106Z,6.13
2019-03-06T04:50:54.852Z,6.21
2019-03-06T04:53:21.552Z,6.11
2019-03-06T04:55:48.285Z,6.02
2019-03-06T04:58:15.013Z,5.97
2019-03-06T05:00:42.063Z,6.04
2019-03-06T05:03:08.792Z,6.04
2019-03-06T05:05:35.566Z,6.07
2019-03-06T05:08:02.291Z,6.00
2019-03-06T05:10:29.038Z,5.92
2019-03-06T05:12:55.769Z,5.90
2019-03-06T05:15:22.640Z,6.10
2019-03-06T05:18:00.046Z,6.08
2019-03-06T05:20:26.811Z,6.04
2019-03-06T05:22:54.037Z,5.94
2019-03-06T05:25:20.762Z,5.94
2019-03-06T05:27:47.506Z,5.90
2019-03-06T05:30:14.924Z,5.90
2019-03-06T05:32:41.747Z,5.86
2019-03-06T05:35:39.033Z,5.86
2019-03-06T05:38:16.466Z,5.92
2019-03-06T05:40:43.210Z,5.85
2019-03-06T05:43:09.948Z,5.80
2019-03-06T05:45:36.688Z,5.80
2019-03-06T05:48:03.531Z,5.75
2019-03-06T05:50:30.326Z,5.66
2019-03-06T05:52:57.118Z,5.81
2019-03-06T05:55:23.843Z,5.76
2019-03-06T05:57:50.588Z,5.76
2019-03-06T06:00:18.957Z,5.81
2019-03-06T06:02:45.707Z,5.80
2019-03-06T06:05:12.480Z,5.80
2019-03-06T06:07:39.333Z,5.85
2019-03-06T06:10:08.822Z,5.87
2019-03-06T06:12:35.580Z,5.95
2019-03-06T06:15:03.968Z,5.95
2019-03-06T06:17:30.820Z,5.95
2019-03-06T06:19:57.776Z,5.91
2019-03-06T06:22:43.001Z,6.06
2019-03-06T06:25:09.713Z,6.06
2019-03-06T06:27:36.442Z,6.11
2019-03-06T06:30:03.264Z,6.25
2019-03-06T06:32:30.083Z,6.31
2019-03-06T06:34:56.825Z,6.45
2019-03-06T06:37:23.678Z,6.59
2019-03-06T06:39:50.583Z,6.59
2019-03-06T06:42:17.314Z,6.66
2019-03-06T06:44:44.201Z,6.66
2019-03-06T06:47:11.084Z,6.75
2019-03-06T06:49:37.992Z,6.81
2019-03-06T06:52:23.428Z,6.81
2019-03-06T06:55:27.558Z,6.95
2019-03-06T06:58:31.564Z,7.15
2019-03-06T07:01:37.967Z,7.30
2019-03-06T07:05:12.026Z,7.30
2019-03-06T07:07:58.882Z,7.44
2019-03-06T07:10:36.775Z,7.61
2019-03-06T07:13:24.311Z,7.61
2019-03-06T07:16:24.643Z,7.61
2019-03-06T07:19:18.979Z,7.69
2019-03-06T07:21:56.718Z,7.80
2019-03-06T07:24:48.817Z,7.80
2019-03-06T07:27:26.971Z,7.91
2019-03-06T07:30:03.558Z,7.95
2019-03-06T07:32:52.475Z,8.02
2019-03-06T07:36:15.147Z,8.09
2019-03-06T07:38:43.028Z,8.15
2019-03-06T07:41:27.775Z,8.30
2019-03-06T07:44:15.083Z,8.44
2019-03-06T07:47:00.327Z,8.50
2019-03-06T07:49:44.436Z,8.56
2019-03-06T07:52:18.738Z,8.60
2019-03-06T07:55:17.114Z,8.69
2019-03-06T07:58:20.492Z,8.75
2019-03-06T08:00:47.538Z,8.89
2019-03-06T08:03:22.283Z,8.98
2019-03-06T08:05:49.614Z,9.09
2019-03-06T08:08:16.331Z,9.17
2019-03-06T08:10:43.100Z,9.23
2019-03-06T08:13:34.937Z,9.30
2019-03-06T08:16:09.387Z,9.40
2019-03-06T08:19:01.730Z,9.42
2019-03-06T08:21:42.545Z,9.45
2019-03-06T08:24:16.739Z,9.47
2019-03-06T08:26:43.569Z,9.54
2019-03-06T08:29:10.367Z,9.59
2019-03-06T08:31:58.623Z,9.62
2019-03-06T08:34:25.357Z,9.72
2019-03-06T08:36:52.208Z,9.86
2019-03-06T08:39:22.733Z,9.89
2019-03-06T08:41:49.476Z,9.87
2019-03-06T08:44:16.617Z,9.94
2019-03-06T08:47:12.289Z,10.01
2019-03-06T08:50:13.959Z,10.08
2019-03-06T08:52:51.896Z,10.17
2019-03-06T08:55:28.197Z,10.29
2019-03-06T08:58:07.336Z,10.35
2019-03-06T09:01:08.885Z,10.52
2019-03-06T09:03:58.119Z,10.73
2019-03-06T09:06:39.815Z,10.90
2019-03-06T09:09:26.503Z,11.14
2019-03-06T09:12:09.695Z,11.38
2019-03-06T09:14:56.373Z,11.57
2019-03-06T09:17:45.495Z,11.69
2019-03-06T09:20:37.175Z,11.75
2019-03-06T09:23:29.340Z,11.78
2019-03-06T09:26:16.711Z,11.80
2019-03-06T09:28:50.008Z,11.94
2019-03-06T09:31:23.297Z,12.01
2019-03-06T09:34:09.781Z,12.09
2019-03-06T09:36:59.059Z,12.23
2019-03-06T09:39:54.478Z,12.36
2019-03-06T09:42:32.991Z,12.46
2019-03-06T09:45:09.193Z,12.56
2019-03-06T09:47:46.051Z,12.65
2019-03-06T09:50:22.933Z,12.77
2019-03-06T09:53:13.284Z,12.94
2019-03-06T09:56:11.633Z,12.97
2019-03-06T09:59:17.731Z,13.05
2019-03-06T10:02:06.753Z,13.13
2019-03-06T10:04:36.530Z,13.12
2019-03-06T10:07:22.936Z,13.14
2019-03-06T10:10:10.304Z,13.23
2019-03-06T10:13:03.498Z,13.35
2019-03-06T10:15:55.891Z,13.27
2019-03-06T10:18:27.934Z,13.26
2019-03-06T10:20:54.875Z,13.29
2019-03-06T10:23:21.649Z,13.44
2019-03-06T10:25:49.522Z,13.51
2019-03-06T10:28:16.265Z,13.49
2019-03-06T10:30:43.014Z,13.61
2019-03-06T10:33:09.743Z,13.80
2019-03-06T10:35:36.487Z,13.93
2019-03-06T10:38:03.222Z,14.01
2019-03-06T10:40:30.605Z,14.24
2019-03-06T10:42:59.531Z,14.25
2019-03-06T10:45:27.674Z,14.44
2019-03-06T10:47:54.821Z,14.67
2019-03-06T10:50:27.360Z,14.72
2019-03-06T10:52:53.018Z,14.89
2019-03-06T10:55:19.885Z,15.11
2019-03-06T10:57:48.813Z,15.13
2019-03-06T11:00:19.791Z,15.19
2019-03-06T11:02:47.232Z,15.25
2019-03-06T11:05:23.552Z,15.16
2019-03-06T11:07:53.147Z,15.27
2019-03-06T11:10:23.714Z,15.25
2019-03-06T11:12:49.041Z,15.20
2019-03-06T11:15:16.435Z,15.13
2019-03-06T11:17:43.382Z,15.12
2019-03-06T11:20:12.475Z,14.93
2019-03-06T11:22:39.359Z,14.89
2019-03-06T11:25:06.562Z,14.88
2019-03-06T11:27:33.355Z,14.93
2019-03-06T11:30:02.835Z,15.01
2019-03-06T11:32:29.970Z,15.03
2019-03-06T11:34:56.796Z,15.04
2019-03-06T11:37:23.503Z,15.14
2019-03-06T11:39:50.229Z,15.09
2019-03-06T11:42:17.462Z,15.21
2019-03-06T11:44:44.272Z,15.27
2019-03-06T11:47:12.132Z,15.25
2019-03-06T11:49:38.952Z,15.32
2019-03-06T11:52:06.556Z,13.47
2019-03-06T11:54:33.387Z,15.33
2019-03-06T11:57:00.143Z,15.36
2019-03-06T11:59:26.831Z,15.28
2019-03-06T12:01:56.940Z,15.36
2019-03-06T12:04:23.647Z,15.55
2019-03-06T12:06:50.762Z,15.45
2019-03-06T12:09:29.042Z,15.68
2019-03-06T12:11:55.783Z,15.94
2019-03-06T12:14:22.655Z,15.99
2019-03-06T12:16:49.691Z,16.22
2019-03-06T12:19:16.504Z,16.21
2019-03-06T12:21:44.211Z,16.10
2019-03-06T12:24:13.199Z,16.10
2019-03-06T12:26:42.341Z,16.33
2019-03-06T12:29:09.128Z,16.37
2019-03-06T12:31:36.172Z,16.45
2019-03-06T12:34:03.051Z,16.39
2019-03-06T12:36:29.908Z,16.47
2019-03-06T12:38:57.487Z,16.54
2019-03-06T12:41:24.306Z,16.69
2019-03-06T12:43:51.046Z,16.75
2019-03-06T12:46:23.767Z,16.82
2019-03-06T12:49:01.831Z,16.96
2019-03-06T12:51:31.729Z,17.01
2019-03-06T12:53:58.758Z,17.14
2019-03-06T12:56:26.057Z,17.37
2019-03-06T12:58:52.857Z,17.28
2019-03-06T13:01:19.549Z,17.27
2019-03-06T13:03:47.469Z,17.24
2019-03-06T13:06:24.191Z,17.32
2019-03-06T13:08:50.407Z,17.29
2019-03-06T13:11:12.473Z,17.36
2019-03-06T13:13:39.315Z,17.43
2019-03-06T13:16:06.057Z,17.43
2019-03-06T13:18:32.808Z,17.40
2019-03-06T13:21:01.573Z,17.63
2019-03-06T13:23:30.381Z,17.77
2019-03-06T13:25:57.282Z,17.81
2019-03-06T13:28:24.026Z,17.70
2019-03-06T13:30:50.753Z,17.82
2019-03-06T13:33:26.038Z,17.82
2019-03-06T13:35:52.740Z,17.68
2019-03-06T13:38:19.464Z,17.84
2019-03-06T13:40:46.205Z,17.81
2019-03-06T13:43:12.942Z,17.79
2019-03-06T13:45:39.900Z,17.97
2019-03-06T13:48:06.623Z,18.07
2019-03-06T13:50:33.346Z,18.07
2019-03-06T13:53:00.071Z,18.30
2019-03-06T13:55:36.479Z,18.51
2019-03-06T13:58:06.368Z,18.62
2019-03-06T14:00:33.124Z,18.68
2019-03-06T14:02:59.872Z,18.76
2019-03-06T14:05:28.556Z,18.69
2019-03-06T14:07:56.673Z,18.49
2019-03-06T14:10:24.252Z,18.28
2019-03-06T14:12:59.494Z,17.94
2019-03-06T14:15:26.223Z,17.68
2019-03-06T14:17:53.049Z,17.58
2019-03-06T14:20:20.948Z,17.51
2019-03-06T14:22:47.646Z,17.42
2019-03-06T14:25:14.525Z,17.47
2019-03-06T14:27:41.796Z,17.27
2019-03-06T14:30:09.866Z,17.27
2019-03-06T14:32:38.584Z,17.21
2019-03-06T14:35:05.422Z,17.12
2019-03-06T14:37:32.676Z,17.16
2019-03-06T14:40:03.035Z,17.21
2019-03-06T14:42:28.164Z,17.27
2019-03-06T14:44:58.400Z,17.45
2019-03-06T14:47:25.136Z,17.40
2019-03-06T14:49:51.990Z,17.37
2019-03-06T14:52:18.947Z,17.21
2019-03-06T14:54:45.779Z,17.24
2019-03-06T14:57:12.885Z,17.28
2019-03-06T14:59:39.719Z,17.12
2019-03-06T15:02:07.024Z,17.27
2019-03-06T15:04:33.780Z,17.02
2019-03-06T15:07:00.888Z,16.92
2019-03-06T15:09:27.761Z,16.96
2019-03-06T15:11:54.918Z,16.89
2019-03-06T15:14:21.737Z,16.75
2019-03-06T15:16:48.442Z,16.59
2019-03-06T15:19:15.416Z,16.61
2019-03-06T15:21:42.135Z,16.47
2019-03-06T15:24:08.861Z,16.43
2019-03-06T15:26:35.763Z,16.47
2019-03-06T15:29:02.618Z,16.53
2019-03-06T15:31:29.472Z,16.37
2019-03-06T15:33:56.312Z,16.32
2019-03-06T15:36:23.117Z,16.22
2019-03-06T15:38:49.878Z,16.05
2019-03-06T15:41:16.592Z,15.95
2019-03-06T15:43:43.419Z,16.11
2019-03-06T15:46:10.498Z,15.86
2019-03-06T15:48:37.326Z,15.88
2019-03-06T15:51:04.471Z,15.71
2019-03-06T15:53:33.538Z,15.57
2019-03-06T15:56:00.264Z,15.51
2019-03-06T15:58:27.006Z,15.65
2019-03-06T16:00:53.778Z,15.49
2019-03-06T16:03:20.538Z,15.48
2019-03-06T16:05:47.256Z,15.40
2019-03-06T16:08:14.226Z,15.37
2019-03-06T16:10:41.269Z,15.47
2019-03-06T16:13:08.126Z,15.37
2019-03-06T16:15:34.813Z,15.27
2019-03-06T16:18:02.028Z,15.22
2019-03-06T16:20:31.629Z,15.28
2019-03-06T16:22:58.353Z,15.30
2019-03-06T16:25:25.047Z,15.18
2019-03-06T16:27:52.178Z,15.18
2019-03-06T16:30:19.104Z,15.13
2019-03-06T16:32:45.835Z,15.13
2019-03-06T16:35:12.566Z,15.09
2019-03-06T16:37:39.374Z,15.07
2019-03-06T16:40:13.547Z,15.10
2019-03-06T16:42:40.399Z,15.06
2019-03-06T16:45:12.946Z,15.05
2019-03-06T16:47:39.988Z,15.04
2019-03-06T16:50:14.306Z,12.65
2019-03-06T16:52:36.822Z,14.82
2019-03-06T16:55:04.551Z,14.75
2019-03-06T16:57:31.461Z,14.73
2019-03-06T16:59:58.213Z,14.69
2019-03-06T17:02:27.526Z,14.68
2019-03-06T17:04:54.677Z,14.73
2019-03-06T17:07:21.578Z,14.60
2019-03-06T17:09:48.672Z,14.55
2019-03-06T17:12:15.487Z,14.58
2019-03-06T17:14:42.371Z,14.56
2019-03-06T17:17:09.236Z,15.33
2019-03-06T17:19:36.002Z,16.01
2019-03-06T17:22:02.726Z,16.34
2019-03-06T17:24:29.621Z,16.51
2019-03-06T17:27:23.636Z,16.63
2019-03-06T17:29:50.504Z,16.77
2019-03-06T17:32:17.420Z,16.75
2019-03-06T17:34:44.192Z,15.95
2019-03-06T17:37:11.604Z,15.42
2019-03-06T17:39:38.927Z,15.15
2019-03-06T17:42:05.657Z,14.98
2019-03-06T17:44:32.924Z,14.79
2019-03-06T17:46:59.951Z,14.66
2019-03-06T17:49:29.807Z,14.52
2019-03-06T17:51:56.504Z,14.46
2019-03-06T17:54:23.252Z,14.41
2019-03-06T17:56:50.003Z,14.38
2019-03-06T17:59:16.865Z,14.37
2019-03-06T18:01:44.366Z,14.38
2019-03-06T18:04:14.243Z,14.36
2019-03-06T18:06:41.010Z,14.36
2019-03-06T18:09:07.750Z,14.34
2019-03-06T18:11:38.909Z,14.33
2019-03-06T18:14:07.237Z,14.27
2019-03-06T18:16:34.498Z,14.23
2019-03-06T18:19:01.600Z,14.14
2019-03-06T18:21:28.335Z,14.10
2019-03-06T18:23:55.073Z,14.07
2019-03-06T18:26:21.912Z,14.09
2019-03-06T18:28:48.763Z,14.08
2019-03-06T18:31:15.496Z,14.06
2019-03-06T18:33:42.225Z,14.07
2019-03-06T18:36:09.087Z,14.06
2019-03-06T18:38:35.822Z,14.07
2019-03-06T18:41:02.671Z,14.03
2019-03-06T18:43:29.411Z,14.03
2019-03-06T18:45:59.018Z,14.06
2019-03-06T18:48:28.613Z,14.09
2019-03-06T18:50:55.337Z,14.09
2019-03-06T18:53:22.725Z,14.05
2019-03-06T18:55:49.766Z,14.06
2019-03-06T18:58:18.289Z,14.05
2019-03-06T19:00:45.404Z,14.05
2019-03-06T19:03:12.228Z,14.03
2019-03-06T19:05:40.970Z,14.04
2019-03-06T19:08:08.155Z,14.08
2019-03-06T19:10:34.997Z,13.98
2019-03-06T19:13:01.778Z,13.94
2019-03-06T19:15:28.771Z,13.97
2019-03-06T19:17:55.520Z,14.01
2019-03-06T19:20:22.349Z,14.00
2019-03-06T19:22:49.682Z,14.00
2019-03-06T19:25:16.664Z,13.94
2019-03-06T19:27:43.517Z,13.95
2019-03-06T19:30:21.409Z,13.91
2019-03-06T19:32:50.957Z,13.91
2019-03-06T19:35:18.637Z,13.92
2019-03-06T19:37:45.354Z,13.87
2019-03-06T19:40:12.812Z,13.90
2019-03-06T19:42:39.731Z,13.80
2019-03-06T19:45:07.213Z,13.71
2019-03-06T19:47:33.945Z,13.70
2019-03-06T19:50:00.663Z,13.64
2019-03-06T19:52:27.364Z,13.58
2019-03-06T19:54:54.117Z,13.47
2019-03-06T19:57:20.835Z,13.43
2019-03-06T19:59:49.268Z,13.43
2019-03-06T20:02:16.238Z,13.37
2019-03-06T20:04:43.381Z,13.41
2019-03-06T20:07:10.098Z,13.37
2019-03-06T20:09:36.829Z,13.35
2019-03-06T20:12:08.685Z,13.30
2019-03-06T20:14:35.576Z,13.27
2019-03-06T20:17:02.304Z,13.23
2019-03-06T20:19:29.843Z,13.19
2019-03-06T20:21:59.285Z,13.16
2019-03-06T20:24:26.071Z,13.15
2019-03-06T20:26:52.908Z,13.20
2019-03-06T20:29:19.625Z,13.21
2019-03-06T20:31:46.481Z,13.19
2019-03-06T20:34:13.203Z,13.13
2019-03-06T20:36:39.915Z,13.16
2019-03-06T20:39:06.920Z,13.20
2019-03-06T20:41:33.626Z,13.28
2019-03-06T20:44:00.325Z,13.36
2019-03-06T20:46:27.150Z,13.34
2019-03-06T20:48:54.121Z,13.34
2019-03-06T20:51:21.233Z,13.29
2019-03-06T20:53:47.946Z,13.25
2019-03-06T20:56:15.253Z,13.22
2019-03-06T20:58:41.946Z,13.24
2019-03-06T21:01:08.682Z,13.25
2019-03-06T21:03:35.752Z,13.31
2019-03-06T21:06:02.517Z,13.37
2019-03-06T21:08:30.325Z,13.38
2019-03-06T21:10:57.170Z,13.35
2019-03-06T21:13:23.916Z,13.30
2019-03-06T21:15:50.666Z,13.30
2019-03-06T21:18:17.383Z,13.23
2019-03-06T21:20:44.371Z,13.14
2019-03-06T21:23:13.741Z,13.17
2019-03-06T21:25:40.507Z,13.17
2019-03-06T21:28:07.675Z,13.11
2019-03-06T21:30:36.621Z,13.13
2019-03-06T21:33:03.396Z,13.15
2019-03-06T21:35:30.223Z,13.10
2019-03-06T21:37:56.948Z,13.09
2019-03-06T21:40:24.677Z,13.07
2019-03-06T21:42:53.334Z,13.02
2019-03-06T21:45:20.065Z,13.04
2019-03-06T21:47:46.862Z,13.05
2019-03-06T21:50:16.993Z,13.00
2019-03-06T21:52:45.387Z,12.96
2019-03-06T21:55:12.423Z,12.91
2019-03-06T21:57:39.393Z,12.91
2019-03-06T22:00:09.763Z,12.90
2019-03-06T22:02:36.564Z,12.88
2019-03-06T22:05:04.536Z,12.82
2019-03-06T22:07:31.639Z,12.72
2019-03-06T22:09:59.567Z,12.73
2019-03-06T22:12:27.090Z,12.74
2019-03-06T22:14:54.360Z,12.71
2019-03-06T22:17:26.566Z,12.63
2019-03-06T22:19:56.156Z,12.56
2019-03-06T22:22:24.224Z,12.54
2019-03-06T22:24:56.556Z,12.54
2019-03-06T22:27:49.885Z,12.57
2019-03-06T22:34:39.602Z,12.40
2019-03-06T22:37:08.976Z,12.28
2019-03-06T22:39:36.502Z,12.28
2019-03-06T22:42:06.020Z,12.22
2019-03-06T22:44:33.861Z,12.23
2019-03-06T22:47:02.784Z,12.28
2019-03-06T22:49:29.706Z,12.37
2019-03-06T22:52:09.862Z,12.45
2019-03-06T22:54:41.289Z,12.44
2019-03-06T22:57:11.789Z,12.40
2019-03-06T22:59:41.955Z,12.34
2019-03-06T23:02:12.214Z,12.27
2019-03-06T23:04:39.451Z,12.29
2019-03-06T23:07:06.285Z,12.40
2019-03-06T23:09:33.422Z,12.52
2019-03-06T23:12:00.218Z,12.60
2019-03-06T23:14:27.012Z,12.67
2019-03-06T23:16:54.101Z,12.73
2019-03-06T23:19:21.062Z,12.75
2019-03-06T23:21:47.840Z,12.74
2019-03-06T23:24:15.002Z,12.71
2019-03-06T23:26:43.190Z,12.70
2019-03-06T23:29:10.364Z,12.73
2019-03-06T23:31:37.966Z,12.73
2019-03-06T23:34:04.811Z,12.71
2019-03-06T23:36:33.366Z,12.73
2019-03-06T23:39:00.278Z,12.77
2019-03-06T23:41:27.209Z,12.80
2019-03-06T23:43:56.500Z,12.81
2019-03-06T23:46:26.247Z,12.84
2019-03-06T23:48:53.346Z,12.90
2019-03-06T23:51:25.601Z,12.99
2019-03-06T23:53:53.884Z,13.03
2019-03-06T23:56:32.054Z,13.06
2019-03-06T23:59:40.986Z,13.05
